Latest Weather Observations for Kowanyama

IDQ60801

Issued at 10:35 am EST Thursday 2 October 2014 (issued every 30 minutes, with the page automatically refreshed every 10 minutes)

About weather observations | Map of weather stations | Latest weather observations for QLD | Other Formats
Station Details ID: 029038 Name: KOWANYAMA AIRPORT Lat: -15.48 Lon: 141.75 Height: 9.6 m
Data from the previous 72 hours. | See also: Recent months at Kowanyama
Date/Time
EST
Temp
°C
App
Temp
°C
Dew
Point
Rel
Hum
%
Delta-T
°C
Wind Press
QNH
hPa
Press
MSL
hPa
Rain
since 9 am
mm
Dir
 
Spd
km/h
Gust
km/h
Spd
kts
Gust
kts
02/10:30am 28.1 25.9 12.0 36 9.3 ESE 15 20 8 11 1015.2 1015.1 0.0
02/10:00am 27.4 25.9 13.0 41 8.4 E 13 20 7 11 1015.4 1015.3 0.0
02/09:30am 26.7 24.7 13.8 45 7.6 ENE 17 24 9 13 1015.5 1015.4 0.0
02/09:00am 25.4 23.7 13.6 48 6.9 ENE 15 24 8 13 1015.5 1015.4 0.0
02/08:30am 24.6 22.7 14.1 52 6.2 ENE 17 28 9 15 1015.6 1015.5 0.0
02/08:00am 23.7 22.6 14.4 56 5.5 ENE 13 19 7 10 1015.3 1015.2 0.0
02/07:30am 22.1 23.3 15.0 64 4.2 ENE 2 7 1 4 1015.1 1015.0 0.0
02/07:00am 18.6 19.8 13.9 74 2.7 CALM 0 0 0 0 1014.5 1014.4 0.0
02/06:30am 18.0 19.6 14.9 82 1.8 CALM 0 0 0 0 1014.3 1014.2 0.0
02/06:00am 18.8 20.2 14.3 75 2.6 NNE 0 0 0 0 1014.0 1013.9 0.0
02/05:30am 20.2 21.1 13.9 67 3.6 NE 2 7 1 4 1013.7 1013.6 0.0
02/05:00am 21.0 21.1 13.9 64 4.1 NE 6 9 3 5 1013.4 1013.3 0.0
02/04:30am 21.6 21.5 13.8 61 4.5 ENE 7 13 4 7 1013.3 1013.2 0.0
02/04:00am 21.9 21.5 14.0 61 4.6 ENE 9 17 5 9 1013.1 1013.0 0.0
02/03:30am 22.1 21.3 14.0 60 4.7 E 11 19 6 10 1013.2 1013.1 0.0
02/03:00am 22.1 22.3 14.7 63 4.4 ENE 7 11 4 6 1013.1 1013.0 0.0
02/02:30am 22.6 22.6 15.2 63 4.4 NE 9 13 5 7 1013.0 1012.9 0.0
02/02:00am 22.7 22.9 15.8 65 4.2 NE 9 13 5 7 1013.1 1013.0 0.0
02/01:30am 23.2 23.5 16.0 64 4.4 NE 9 13 5 7 1013.4 1013.3 0.0
02/01:00am 23.7 24.2 16.5 64 4.4 NE 9 13 5 7 1013.6 1013.5 0.0
02/12:30am 23.8 24.2 17.3 67 4.0 NNE 11 17 6 9 1013.7 1013.6 0.0
02/12:00am 23.4 24.6 18.3 73 3.2 NNE 9 13 5 7 1013.5 1013.4 0.0
 
Date/Time
EST
Temp
°C
App
Temp
°C
Dew
Point
Rel
Hum
%
Delta-T
°C
Wind Press
QNH
hPa
Press
MSL
hPa
Rain
since 9 am
mm
Dir
 
Spd
km/h
Gust
km/h
Spd
kts
Gust
kts
01/11:30pm 23.7 25.0 18.4 72 3.3 NNE 9 13 5 7 1013.9 1013.8 0.0
01/11:00pm 24.0 25.5 18.9 73 3.2 NNW 9 26 5 14 1013.3 1013.2 0.0
01/10:30pm 22.6 25.4 17.9 75 2.9 CALM 0 7 0 4 1012.6 1012.5 0.0
01/10:00pm 22.8 25.3 18.1 75 2.9 SW 2 6 1 3 1012.7 1012.6 0.0
01/09:30pm 23.4 25.5 18.1 72 3.3 SW 4 7 2 4 1012.7 1012.6 0.0
01/09:00pm 24.0 25.7 18.4 71 3.5 WSW 7 9 4 5 1012.6 1012.5 0.0
01/08:30pm 24.5 26.2 18.4 69 3.9 WSW 7 11 4 6 1012.3 1012.2 0.0
01/08:00pm 25.1 26.0 18.3 66 4.3 SW 11 15 6 8 1012.1 1012.0 0.0
01/07:30pm 25.8 25.6 17.7 61 5.1 SW 15 20 8 11 1011.8 1011.7 0.0
01/07:00pm 26.6 26.2 17.1 56 5.9 WSW 15 20 8 11 1011.4 1011.3 0.0
01/06:30pm 27.8 27.1 16.4 50 7.1 WSW 15 20 8 11 1011.0 1010.9 0.0
01/06:00pm 29.5 28.5 15.6 43 8.6 WSW 15 22 8 12 1010.4 1010.3 0.0
01/05:30pm 33.8 30.2 8.4 21 14.3 ESE 17 24 9 13 1009.9 1009.8 0.0
01/05:00pm 34.0 30.8 8.6 21 14.3 SE 15 26 8 14 1009.8 1009.7 0.0
01/04:30pm 34.0 30.1 8.6 21 14.3 E 19 32 10 17 1009.7 1009.6 0.0
01/04:00pm 34.2 30.3 8.8 21 14.4 ESE 19 24 10 13 1009.9 1009.8 0.0
01/03:30pm 34.3 30.4 8.8 21 14.4 ESE 19 26 10 14 1010.2 1010.1 0.0
01/03:00pm 34.0 30.2 9.9 23 13.9 SE 20 30 11 16 1010.5 1010.4 0.0
01/02:30pm 33.6 29.9 10.2 24 13.5 SE 20 32 11 17 1011.0 1010.9 0.0
01/02:00pm 32.2 29.2 10.8 27 12.4 SE 17 30 9 16 1011.4 1011.3 0.0
01/01:30pm 32.1 30.6 10.7 27 12.4 SE 9 20 5 11 1012.1 1012.0 0.0
01/01:00pm 31.6 29.3 11.9 30 11.6 E 15 24 8 13 1012.7 1012.6 0.0
01/12:30pm 30.7 28.7 11.6 31 11.1 E 13 30 7 16 1013.5 1013.4 0.0
01/12:00pm 30.3 27.4 12.2 33 10.6 ESE 19 32 10 17 1014.4 1014.3 0.0
01/11:30am 30.0 28.2 13.3 36 9.9 ENE 15 26 8 14 1015.0 1014.9 0.0
01/11:00am 28.8 26.5 13.1 38 9.3 E 17 28 9 15 1015.7 1015.6 0.0
01/10:30am 27.7 25.5 13.3 41 8.5 E 17 32 9 17 1016.1 1016.0 0.0
01/10:00am 27.3 25.0 12.9 41 8.4 ENE 17 26 9 14 1016.3 1016.2 0.0
01/09:30am 26.8 24.3 13.5 44 7.8 E 19 32 10 17 1016.7 1016.6 0.0
01/09:00am 25.6 22.5 13.5 47 7.1 ENE 22 33 12 18 1016.8 1016.7 0.0
01/08:30am 24.4 22.5 15.1 56 5.6 ENE 19 28 10 15 1016.7 1016.6 0.0
01/08:00am 23.7 23.2 16.0 62 4.7 E 13 20 7 11 1016.7 1016.6 0.0
01/07:30am 21.9 22.3 14.8 64 4.2 ENE 6 11 3 6 1016.5 1016.4 0.0
01/07:00am 20.0 20.3 14.6 71 3.1 E 6 7 3 4 1016.0 1015.9 0.0
01/06:30am 18.2 18.5 14.5 79 2.1 E 6 7 3 4 1015.8 1015.7 0.0
01/06:00am 18.5 18.9 14.8 79 2.1 E 6 9 3 5 1015.5 1015.4 0.0
01/05:30am 18.9 20.2 14.0 73 2.8 CALM 0 2 0 1 1015.2 1015.1 0.0
01/05:00am 20.0 20.1 13.9 68 3.5 ESE 6 7 3 4 1014.9 1014.8 0.0
01/04:30am 21.1 21.5 13.8 63 4.2 E 4 7 2 4 1014.5 1014.4 0.0
01/04:00am 21.9 21.8 14.0 61 4.6 NNE 7 13 4 7 1013.8 1013.7 0.0
01/03:30am 22.3 21.8 13.9 59 4.9 NNE 9 13 5 7 1014.1 1014.0 0.0
01/03:00am 22.4 22.4 14.3 60 4.7 NE 7 15 4 8 1014.4 1014.3 0.0
01/02:30am 22.1 22.6 15.5 66 3.9 NE 7 9 4 5 1014.5 1014.4 0.0
01/02:00am 21.8 22.9 17.0 74 2.9 NE 7 9 4 5 1014.6 1014.5 0.0
01/01:30am 21.6 23.2 17.8 79 2.4 ENE 6 9 3 5 1014.7 1014.6 0.0
01/01:00am 21.9 24.0 18.1 79 2.4 ENE 4 7 2 4 1014.7 1014.6 0.0
01/12:30am 22.1 23.7 18.3 79 2.4 NNE 7 11 4 6 1014.8 1014.7 0.0
01/12:00am 22.8 24.4 18.3 76 2.8 ESE 7 9 4 5 1014.9 1014.8 0.0
 
Date/Time
EST
Temp
°C
App
Temp
°C
Dew
Point
Rel
Hum
%
Delta-T
°C
Wind Press
QNH
hPa
Press
MSL
hPa
Rain
since 9 am
mm
Dir
 
Spd
km/h
Gust
km/h
Spd
kts
Gust
kts
30/11:30pm 22.9 24.3 18.7 77 2.7 E 9 13 5 7 1015.0 1014.9 0.0
30/11:00pm 23.4 25.5 18.9 76 2.9 ENE 6 9 3 5 1014.9 1014.8 0.0
30/10:30pm 23.9 27.2 19.0 74 3.1 CALM 0 0 0 0 1014.9 1014.8 0.0
30/10:00pm 24.0 26.4 18.9 73 3.2 E 4 6 2 3 1014.9 1014.8 0.0
30/09:30pm 24.6 27.1 19.0 71 3.6 SE 4 7 2 4 1014.6 1014.5 0.0
30/09:00pm 24.9 26.4 18.8 69 3.9 SSW 9 13 5 7 1014.2 1014.1 0.0
30/08:30pm 25.3 26.5 18.2 64 4.5 SSW 9 11 5 6 1013.9 1013.8 0.0
30/08:00pm 25.7 26.2 17.4 60 5.2 SW 11 15 6 8 1013.5 1013.4 0.0
30/07:30pm 26.3 26.5 16.8 56 5.9 WSW 11 15 6 8 1013.1 1013.0 0.0
30/07:00pm 27.1 27.2 16.4 52 6.6 WSW 11 17 6 9 1012.7 1012.6 0.0
30/06:30pm 28.0 27.8 16.6 50 7.1 WSW 13 20 7 11 1012.0 1011.9 0.0
30/06:00pm 29.4 27.9 16.2 44 8.2 W 19 24 10 13 1011.4 1011.3 0.0
30/05:30pm 33.7 31.9 12.1 27 12.8 SE 13 20 7 11 1011.0 1010.9 0.0
30/05:00pm 33.6 29.7 12.0 27 12.8 ESE 24 33 13 18 1010.8 1010.7 0.0
30/04:30pm 33.3 32.0 11.2 26 12.9 E 9 17 5 9 1010.8 1010.7 0.0
30/04:00pm 33.0 29.7 10.9 26 12.9 E 19 26 10 14 1010.9 1010.8 0.0
30/03:30pm 33.6 30.3 10.9 25 13.2 ESE 19 28 10 15 1011.1 1011.0 0.0
30/03:00pm 33.2 30.5 11.7 27 12.7 ESE 17 32 9 17 1011.5 1011.4 0.0
30/02:30pm 33.3 30.8 12.3 28 12.5 SSE 17 24 9 13 1011.8 1011.7 0.0
30/02:00pm 32.4 30.0 12.6 30 11.8 SSE 17 24 9 13 1012.2 1012.1 0.0
30/01:30pm 31.5 30.1 12.3 31 11.3 ESE 11 19 6 10 1012.9 1012.8 0.0
30/01:00pm 31.5 28.9 13.3 33 10.9 ENE 19 28 10 15 1013.5 1013.4 0.0
30/12:30pm 30.3 28.4 13.1 34 10.2 ESE 15 28 8 15 1014.1 1014.0 0.0
30/12:00pm 30.0 26.7 12.9 35 10.1 ESE 22 33 12 18 1014.7 1014.6 0.0
30/11:30am 30.1 28.1 13.8 37 9.8 ENE 17 24 9 13 1015.4 1015.3 0.0
30/11:00am 28.6 26.9 13.7 40 8.9 E 15 24 8 13 1016.1 1016.0 0.0
30/10:30am 28.1 25.3 13.2 39 8.8 E 20 30 11 16 1016.6 1016.5 0.0
30/10:00am 27.7 25.4 14.0 43 8.2 ENE 19 30 10 16 1017.0 1016.9 0.0
30/09:30am 27.0 24.7 14.1 45 7.7 ENE 19 32 10 17 1017.2 1017.1 0.0
30/09:00am 26.1 25.0 15.2 51 6.6 ENE 15 19 8 10 1017.4 1017.3 0.0
30/08:30am 25.2 24.7 15.8 56 5.7 ENE 13 20 7 11 1017.3 1017.2 0.0
30/08:00am 24.1 24.0 15.9 60 5.0 E 11 19 6 10 1017.1 1017.0 0.0
30/07:30am 22.5 23.3 15.8 66 4.0 E 6 9 3 5 1016.9 1016.8 0.0
30/07:00am 20.3 21.4 15.5 74 2.8 ESE 4 7 2 4 1016.5 1016.4 0.0
30/06:30am 19.1 20.3 15.0 77 2.4 ESE 2 7 1 4 1016.1 1016.0 0.0
30/06:00am 19.0 20.6 14.9 77 2.4 CALM 0 0 0 0 1015.8 1015.7 0.0
30/05:30am 18.9 20.5 14.8 77 2.4 CALM 0 0 0 0 1015.4 1015.3 0.0
30/05:00am 19.5 21.0 14.7 74 2.8 CALM 0 0 0 0 1015.1 1015.0 0.0
30/04:30am 20.1 21.5 14.5 70 3.3 CALM 0 0 0 0 1014.8 1014.7 0.0
30/04:00am 21.2 21.5 14.6 66 3.9 E 6 9 3 5 1014.5 1014.4 0.0
30/03:30am 21.4 21.9 15.0 67 3.8 E 6 7 3 4 1014.4 1014.3 0.0
30/03:00am 21.7 23.4 15.1 66 3.9 CALM 0 0 0 0 1014.5 1014.4 0.0
30/02:30am 22.6 23.0 15.2 63 4.4 NE 7 9 4 5 1014.6 1014.5 0.0
30/02:00am 22.7 23.1 15.3 63 4.4 NE 7 9 4 5 1014.8 1014.7 0.0
30/01:30am 23.1 23.7 15.4 62 4.6 NNE 6 9 3 5 1015.0 1014.9 0.0
30/01:00am 23.5 24.0 15.5 60 4.8 NNE 7 9 4 5 1015.1 1015.0 0.0
30/12:30am 23.6 24.4 16.4 64 4.4 NNE 7 11 4 6 1015.3 1015.2 0.0
30/12:00am 23.3 24.8 18.0 72 3.3 NNE 7 11 4 6 1015.3 1015.2 0.0
 
Date/Time
EST
Temp
°C
App
Temp
°C
Dew
Point
Rel
Hum
%
Delta-T
°C
Wind Press
QNH
hPa
Press
MSL
hPa
Rain
since 9 am
mm
Dir
 
Spd
km/h
Gust
km/h
Spd
kts
Gust
kts
29/11:30pm 22.8 24.6 18.3 76 2.8 N 6 9 3 5 1015.3 1015.2 0.0
29/11:00pm 23.1 25.0 18.6 76 2.8 N 6 7 3 4 1015.3 1015.2 0.0
29/10:30pm 23.5 25.7 18.4 73 3.2 NNE 4 6 2 3 1015.2 1015.1 0.0
29/10:00pm 23.2 24.8 18.3 74 3.1 ENE 7 15 4 8 1015.0 1014.9 0.0
29/09:30pm 23.9 26.9 18.5 72 3.4 CALM 0 0 0 0 1014.3 1014.2 0.0
29/09:00pm 24.5 26.9 18.7 70 3.7 NNW 4 7 2 4 1013.6 1013.5 0.0
29/08:30pm 25.3 27.2 18.5 66 4.3 WSW 6 9 3 5 1013.2 1013.1 0.0
29/08:00pm 25.9 27.0 18.1 62 4.9 SW 9 15 5 8 1012.8 1012.7 0.0
29/07:30pm 26.5 27.1 17.6 58 5.6 SW 11 15 6 8 1012.4 1012.3 0.0
29/07:00pm 27.2 27.0 16.8 53 6.5 WSW 13 15 7 8 1011.9 1011.8 0.0
29/06:30pm 28.7 28.0 16.3 47 7.7 WSW 15 17 8 9 1011.3 1011.2 0.0
29/06:00pm 33.1 31.7 11.0 26 12.9 ESE 9 15 5 8 1010.7 1010.6 0.0
29/05:30pm 33.5 31.5 11.4 26 13.0 ESE 13 20 7 11 1010.4 1010.3 0.0
29/05:00pm 33.8 31.8 11.6 26 13.1 ESE 13 22 7 12 1010.2 1010.1 0.0
29/04:30pm 34.1 32.2 11.9 26 13.2 ESE 13 26 7 14 1010.1 1010.0 0.0
29/04:00pm 34.4 32.2 12.1 26 13.3 E 15 22 8 12 1010.2 1010.1 0.0
29/03:30pm 33.8 32.0 12.2 27 12.9 ENE 13 32 7 17 1010.3 1010.2 0.0
29/03:00pm 33.4 29.8 11.9 27 12.7 E 22 30 12 16 1010.6 1010.5 0.0
29/02:30pm 33.3 29.9 11.2 26 12.9 SE 20 24 11 13 1011.0 1010.9 0.0
29/02:00pm 33.4 30.2 11.9 27 12.7 ESE 20 33 11 18 1011.6 1011.5 0.0
29/01:30pm 32.6 31.0 12.8 30 11.8 ESE 13 22 7 12 1012.1 1012.0 0.0
29/01:00pm 31.6 29.5 12.4 31 11.4 E 15 24 8 13 1012.7 1012.6 0.0
29/12:30pm 31.8 29.2 12.1 30 11.6 E 17 30 9 16 1013.2 1013.1 0.0
29/12:00pm 31.2 28.9 13.0 33 10.8 ESE 17 30 9 16 1013.8 1013.7 0.0
29/11:30am 29.7 26.6 12.2 34 10.2 E 20 28 11 15 1014.6 1014.5 0.0
29/11:00am 30.1 27.9 13.4 36 10.0 ENE 17 26 9 14 1015.0 1014.9 0.0

Other Formats:

Comma delimited format used in spreadsheet applications
http://www.bom.gov.au/fwo/IDQ60801/IDQ60801.94268.axf

JavaScript Object Notation format (JSON) in row-major order
http://www.bom.gov.au/fwo/IDQ60801/IDQ60801.94268.json